Time;durP1;ratioP1;P1;durP2;ratioP2;P2;SDS_P1;SDS_P2;PMS_P1;PMS_P2;Temp;Humidity;BMP_temperature;BMP_pressure;BME280_temperature;BME280_humidity;BME280_pressure;Samples;Min_cycle;Max_cycle;Signal;HPM_P1;HPM_P2
2023/06/24 00:03:46;;;;;;;2.60;2.40;;;;;;;;;;8333359;28;20040;-61
2023/06/24 00:07:47;;;;;;;2.70;2.50;;;;;;;;;;8333327;28;20560;-61
2023/06/24 00:11:47;;;;;;;3.38;2.67;;;;;;;;;;8328961;28;20412;-61
2023/06/24 00:15:47;;;;;;;2.75;2.35;;;;;;;;;;8328664;28;20132;-60
2023/06/24 00:19:47;;;;;;;3.60;2.55;;;;;;;;;;8331017;28;20028;-61
2023/06/24 00:23:49;;;;;;;2.80;2.42;;;;;;;;;;8337907;28;20020;-61
2023/06/24 00:27:49;;;;;;;2.60;2.40;;;;;;;;;;8328683;28;21041;-61
2023/06/24 00:31:49;;;;;;;3.30;3.00;;;;;;;;;;8332537;28;20040;-61
2023/06/24 00:35:49;;;;;;;3.05;2.42;;;;;;;;;;8311143;28;20040;-61
2023/06/24 00:39:50;;;;;;;2.75;2.40;;;;;;;;;;8331140;28;20028;-60
2023/06/24 00:43:50;;;;;;;3.33;2.60;;;;;;;;;;8331518;28;20123;-61
2023/06/24 00:47:51;;;;;;;2.22;2.10;;;;;;;;;;8330736;28;20367;-61
2023/06/24 00:51:51;;;;;;;4.22;2.60;;;;;;;;;;8341670;28;21118;-61
2023/06/24 00:55:54;;;;;;;4.05;2.70;;;;;;;;;;8334585;28;20456;-60
2023/06/24 00:59:56;;;;;;;3.13;2.70;;;;;;;;;;8327409;28;20040;-61
2023/06/24 01:03:56;;;;;;;2.90;2.45;;;;;;;;;;8334489;28;20872;-61
2023/06/24 01:07:57;;;;;;;3.08;2.78;;;;;;;;;;8330071;28;20067;-61
2023/06/24 01:11:57;;;;;;;2.80;2.60;;;;;;;;;;8329031;28;20028;-60
2023/06/24 01:16:00;;;;;;;3.78;2.70;;;;;;;;;;8329228;28;20040;-61
2023/06/24 01:20:00;;;;;;;3.25;2.50;;;;;;;;;;8331150;28;20374;-61
2023/06/24 01:24:19;;;;;;;6.97;2.80;;;;;;;;;;8329084;28;20025;-61
2023/06/24 01:28:38;;;;;;;2.42;2.22;;;;;;;;;;8331128;28;20021;-61
2023/06/24 01:32:41;;;;;;;2.40;2.10;;;;;;;;;;8328800;28;20044;-61
2023/06/24 01:36:44;;;;;;;2.45;2.25;;;;;;;;;;8331835;28;20036;-61
2023/06/24 01:40:45;;;;;;;2.77;2.57;;;;;;;;;;8336551;28;20048;-61
2023/06/24 01:44:47;;;;;;;2.58;2.38;;;;;;;;;;8328006;28;20025;-61
2023/06/24 01:48:47;;;;;;;4.07;2.72;;;;;;;;;;8326327;28;20055;-61
2023/06/24 01:52:50;;;;;;;3.15;2.90;;;;;;;;;;8327720;28;20029;-61
2023/06/24 01:56:52;;;;;;;3.53;3.08;;;;;;;;;;8328340;28;20503;-61
2023/06/24 02:00:52;;;;;;;2.85;2.63;;;;;;;;;;8331093;28;20102;-61
2023/06/24 02:04:54;;;;;;;3.45;3.03;;;;;;;;;;8333956;28;20255;-61
2023/06/24 02:08:55;;;;;;;3.47;3.17;;;;;;;;;;8349833;28;20044;-61
2023/06/24 02:12:55;;;;;;;5.40;2.97;;;;;;;;;;8344121;28;20060;-61
2023/06/24 02:16:57;;;;;;;3.60;2.92;;;;;;;;;;8333291;28;20044;-61
2023/06/24 02:20:58;;;;;;;2.83;2.60;;;;;;;;;;8337854;28;20366;-61
2023/06/24 02:24:59;;;;;;;4.55;3.22;;;;;;;;;;8336456;28;20021;-60
2023/06/24 02:28:59;;;;;;;3.72;3.05;;;;;;;;;;8336720;28;20826;-61
2023/06/24 02:32:59;;;;;;;3.53;3.22;;;;;;;;;;8336443;28;20040;-60
2023/06/24 02:37:00;;;;;;;3.17;2.67;;;;;;;;;;8335140;28;20031;-60
2023/06/24 02:41:04;;;;;;;3.75;3.05;;;;;;;;;;8340787;28;20279;-60
2023/06/24 02:45:05;;;;;;;3.78;3.00;;;;;;;;;;8337349;28;20728;-61
2023/06/24 02:49:05;;;;;;;3.50;3.20;;;;;;;;;;8334329;28;20781;-60
2023/06/24 02:53:06;;;;;;;3.47;2.60;;;;;;;;;;8336785;28;20695;-61
2023/06/24 02:57:07;;;;;;;2.92;2.70;;;;;;;;;;8322594;28;20333;-61
2023/06/24 03:01:08;;;;;;;4.72;2.65;;;;;;;;;;8334485;28;20135;-61
2023/06/24 03:05:09;;;;;;;2.70;2.50;;;;;;;;;;8336933;28;20101;-60
2023/06/24 03:09:09;;;;;;;3.15;2.85;;;;;;;;;;8335192;28;20445;-61
2023/06/24 03:13:09;;;;;;;3.10;2.70;;;;;;;;;;8337951;28;20044;-60
2023/06/24 03:17:11;;;;;;;2.83;2.63;;;;;;;;;;8341760;28;20032;-61
2023/06/24 03:21:11;;;;;;;3.85;2.78;;;;;;;;;;8335478;28;20082;-61
2023/06/24 03:25:11;;;;;;;5.35;3.00;;;;;;;;;;8340708;28;20036;-61
2023/06/24 03:29:11;;;;;;;3.22;2.92;;;;;;;;;;8337679;28;20107;-60
2023/06/24 03:33:16;;;;;;;4.80;2.80;;;;;;;;;;8343336;28;20135;-61
2023/06/24 03:37:17;;;;;;;2.92;2.70;;;;;;;;;;8347570;28;20370;-61
2023/06/24 03:41:17;;;;;;;3.22;2.92;;;;;;;;;;8335071;28;20060;-60
2023/06/24 03:45:17;;;;;;;3.43;2.80;;;;;;;;;;8355724;28;20062;-61
2023/06/24 03:49:18;;;;;;;3.73;3.13;;;;;;;;;;8380367;28;20139;-61
2023/06/24 03:53:18;;;;;;;2.95;2.75;;;;;;;;;;8369858;28;20028;-60
2023/06/24 03:57:18;;;;;;;3.22;2.50;;;;;;;;;;8375257;28;20028;-61
2023/06/24 04:01:19;;;;;;;2.80;2.60;;;;;;;;;;8369063;28;20078;-61
2023/06/24 04:05:20;;;;;;;3.15;2.85;;;;;;;;;;8367980;28;20072;-61
2023/06/24 04:09:21;;;;;;;3.35;2.90;;;;;;;;;;8369726;28;20028;-60
2023/06/24 04:13:21;;;;;;;5.82;2.95;;;;;;;;;;8368274;28;20483;-60
2023/06/24 04:17:21;;;;;;;3.33;2.90;;;;;;;;;;8368443;28;20069;-61
2023/06/24 04:21:22;;;;;;;4.13;2.90;;;;;;;;;;8368911;28;20036;-61
2023/06/24 04:25:22;;;;;;;3.20;2.55;;;;;;;;;;8365940;28;20308;-60
2023/06/24 04:29:22;;;;;;;3.10;2.78;;;;;;;;;;8370771;28;20020;-60
2023/06/24 04:33:24;;;;;;;3.40;3.00;;;;;;;;;;8365961;28;20047;-61
2023/06/24 04:37:24;;;;;;;2.67;2.47;;;;;;;;;;8368253;28;20024;-61
2023/06/24 04:41:25;;;;;;;4.07;2.63;;;;;;;;;;8368656;28;20048;-61
2023/06/24 04:45:25;;;;;;;4.03;2.72;;;;;;;;;;8333839;28;20151;-61
2023/06/24 04:49:25;;;;;;;2.60;2.40;;;;;;;;;;8334124;28;21000;-62
2023/06/24 04:53:26;;;;;;;2.70;2.50;;;;;;;;;;8335488;28;20040;-61
2023/06/24 04:57:28;;;;;;;2.70;2.50;;;;;;;;;;8330970;28;20202;-61
2023/06/24 05:01:28;;;;;;;3.90;2.70;;;;;;;;;;8330633;28;20037;-61
2023/06/24 05:05:28;;;;;;;3.13;2.50;;;;;;;;;;8330506;28;20035;-61
2023/06/24 05:09:28;;;;;;;3.00;2.58;;;;;;;;;;8332137;28;20021;-61
2023/06/24 05:13:28;;;;;;;6.03;2.80;;;;;;;;;;8332598;28;20033;-61
2023/06/24 05:17:29;;;;;;;3.92;3.03;;;;;;;;;;8335860;28;20044;-61
2023/06/24 05:21:29;;;;;;;3.17;2.88;;;;;;;;;;8335387;28;20147;-61
2023/06/24 05:25:29;;;;;;;3.75;2.92;;;;;;;;;;8331578;28;20132;-61
2023/06/24 05:29:29;;;;;;;3.42;2.92;;;;;;;;;;8333587;28;20437;-61
2023/06/24 05:33:30;;;;;;;5.15;3.22;;;;;;;;;;8332370;28;20792;-62
2023/06/24 05:37:30;;;;;;;3.40;2.95;;;;;;;;;;8333873;28;20041;-62
2023/06/24 05:41:30;;;;;;;3.63;2.67;;;;;;;;;;8332340;28;20129;-61
2023/06/24 05:45:30;;;;;;;4.10;2.80;;;;;;;;;;8327944;28;20051;-61
2023/06/24 05:49:31;;;;;;;3.08;2.78;;;;;;;;;;8330158;28;20135;-62
2023/06/24 05:53:31;;;;;;;3.70;3.00;;;;;;;;;;8338617;28;20131;-61
2023/06/24 05:57:31;;;;;;;2.70;2.50;;;;;;;;;;8332464;28;20091;-61
2023/06/24 06:01:31;;;;;;;3.85;2.90;;;;;;;;;;8342615;28;20054;-61
2023/06/24 06:05:31;;;;;;;3.75;3.00;;;;;;;;;;8335293;28;20029;-61
2023/06/24 06:09:31;;;;;;;3.58;3.10;;;;;;;;;;8312473;28;20107;-61
2023/06/24 06:13:32;;;;;;;3.58;2.90;;;;;;;;;;8331348;28;20040;-62
2023/06/24 06:17:32;;;;;;;3.97;3.55;;;;;;;;;;8331638;28;20036;-61
2023/06/24 06:21:32;;;;;;;3.15;2.85;;;;;;;;;;8333603;28;20027;-61
2023/06/24 06:25:32;;;;;;;3.55;3.25;;;;;;;;;;8331675;28;20043;-61
2023/06/24 06:29:33;;;;;;;7.47;3.40;;;;;;;;;;8330210;28;20052;-61
2023/06/24 06:33:33;;;;;;;5.73;3.50;;;;;;;;;;8330002;28;20757;-61
2023/06/24 06:37:33;;;;;;;3.95;3.28;;;;;;;;;;8330221;28;20135;-61
2023/06/24 06:41:33;;;;;;;3.63;3.33;;;;;;;;;;8329547;28;20052;-61
2023/06/24 06:45:34;;;;;;;4.38;3.35;;;;;;;;;;8330160;28;20036;-61
2023/06/24 06:49:34;;;;;;;3.72;3.05;;;;;;;;;;8330862;28;20135;-62
2023/06/24 06:53:34;;;;;;;3.97;3.58;;;;;;;;;;8338411;28;20044;-61
2023/06/24 06:57:34;;;;;;;6.70;3.00;;;;;;;;;;8338565;28;20021;-62
2023/06/24 07:01:34;;;;;;;4.55;3.22;;;;;;;;;;8337064;28;20345;-62
2023/06/24 07:05:35;;;;;;;3.57;3.23;;;;;;;;;;8334292;28;20151;-62
2023/06/24 07:09:35;;;;;;;4.07;3.23;;;;;;;;;;8337089;28;20036;-62
2023/06/24 07:13:36;;;;;;;3.58;3.20;;;;;;;;;;8340325;28;20757;-61
2023/06/24 07:17:36;;;;;;;4.32;3.30;;;;;;;;;;8337057;28;20041;-61
2023/06/24 07:21:37;;;;;;;6.20;3.07;;;;;;;;;;8337498;28;20024;-62
2023/06/24 07:25:37;;;;;;;3.97;2.92;;;;;;;;;;8337460;28;20139;-61
2023/06/24 07:29:38;;;;;;;3.33;2.90;;;;;;;;;;8342314;28;20036;-61
2023/06/24 07:33:38;;;;;;;5.30;2.92;;;;;;;;;;8344624;28;20915;-61
2023/06/24 07:37:38;;;;;;;3.88;2.85;;;;;;;;;;8336267;28;20028;-61
2023/06/24 07:41:39;;;;;;;3.15;2.85;;;;;;;;;;8334431;28;20029;-62
2023/06/24 07:45:39;;;;;;;3.40;2.90;;;;;;;;;;8369442;28;20481;-62
2023/06/24 07:49:39;;;;;;;2.90;2.70;;;;;;;;;;8378737;28;20351;-61
2023/06/24 07:53:40;;;;;;;2.70;2.50;;;;;;;;;;8369297;28;20048;-61
2023/06/24 07:57:40;;;;;;;4.67;2.97;;;;;;;;;;8373134;28;20036;-61
2023/06/24 08:01:40;;;;;;;3.40;2.60;;;;;;;;;;8369352;28;20040;-61
2023/06/24 08:05:40;;;;;;;3.65;2.50;;;;;;;;;;8369823;28;20027;-61
2023/06/24 08:09:40;;;;;;;2.90;2.70;;;;;;;;;;8369569;28;20031;-62
2023/06/24 08:13:41;;;;;;;3.47;2.25;;;;;;;;;;8369982;28;20130;-61
2023/06/24 08:17:41;;;;;;;2.73;2.53;;;;;;;;;;8364140;28;20091;-61
2023/06/24 08:21:41;;;;;;;3.58;2.60;;;;;;;;;;8363513;28;20039;-62
2023/06/24 08:25:41;;;;;;;4.10;2.65;;;;;;;;;;8364963;28;20056;-61
2023/06/24 08:29:41;;;;;;;3.15;2.75;;;;;;;;;;8367512;28;20038;-61
2023/06/24 08:33:43;;;;;;;8.18;7.38;;;;;;;;;;8369554;28;20810;-62
2023/06/24 08:37:43;;;;;;;10.40;7.30;;;;;;;;;;8354919;28;20040;-61
2023/06/24 08:41:43;;;;;;;5.18;4.68;;;;;;;;;;8357872;28;20075;-61
2023/06/24 08:45:44;;;;;;;3.65;2.90;;;;;;;;;;8334509;28;20051;-61
2023/06/24 08:49:49;;;;;;;4.57;3.53;;;;;;;;;;8329307;28;20028;-61
2023/06/24 08:53:49;;;;;;;4.40;3.15;;;;;;;;;;8330557;28;20035;-61
2023/06/24 08:57:50;;;;;;;3.20;2.90;;;;;;;;;;8327193;28;20302;-61
2023/06/24 09:01:51;;;;;;;5.72;3.50;;;;;;;;;;8325446;28;20040;-61
2023/06/24 09:05:51;;;;;;;5.40;2.88;;;;;;;;;;8329628;28;20626;-61
2023/06/24 09:09:51;;;;;;;3.55;3.22;;;;;;;;;;8329311;28;20334;-61
2023/06/24 09:13:54;;;;;;;4.30;2.80;;;;;;;;;;8324736;28;20039;-61
2023/06/24 09:17:54;;;;;;;2.92;2.63;;;;;;;;;;8324177;28;20087;-61
2023/06/24 09:22:04;;;;;;;3.53;2.65;;;;;;;;;;8326120;28;20107;-62
2023/06/24 09:26:05;;;;;;;3.38;2.92;;;;;;;;;;8324513;28;20120;-62
2023/06/24 09:30:21;;;;;;;4.07;2.77;;;;;;;;;;8326647;28;20024;-62
2023/06/24 09:34:21;;;;;;;3.60;2.97;;;;;;;;;;8332337;28;20024;-64
2023/06/24 09:38:31;;;;;;;3.63;2.50;;;;;;;;;;8324535;28;20021;-61
2023/06/24 09:42:32;;;;;;;2.30;2.10;;;;;;;;;;8321748;28;20094;-62
2023/06/24 09:46:32;;;;;;;2.92;2.42;;;;;;;;;;8326106;28;20032;-62
2023/06/24 09:50:33;;;;;;;2.57;2.37;;;;;;;;;;8321415;28;20017;-62
2023/06/24 09:54:34;;;;;;;3.97;2.60;;;;;;;;;;8322501;28;20137;-61
2023/06/24 09:58:35;;;;;;;3.97;2.67;;;;;;;;;;8321027;28;20087;-62
2023/06/24 10:02:36;;;;;;;3.10;2.80;;;;;;;;;;8322158;28;20295;-62
2023/06/24 10:06:36;;;;;;;3.03;2.72;;;;;;;;;;8330846;28;20481;-62
2023/06/24 10:10:36;;;;;;;3.20;2.90;;;;;;;;;;8338202;28;20040;-63
2023/06/24 10:14:37;;;;;;;3.58;3.15;;;;;;;;;;8339244;28;20028;-61
2023/06/24 10:18:38;;;;;;;4.27;3.00;;;;;;;;;;8337764;28;20033;-61
2023/06/24 10:22:38;;;;;;;4.22;2.78;;;;;;;;;;8338912;28;20024;-62
2023/06/24 10:26:39;;;;;;;2.70;2.50;;;;;;;;;;8338519;28;20975;-62
2023/06/24 10:30:53;;;;;;;3.03;2.50;;;;;;;;;;8343260;28;20044;-62
2023/06/24 10:34:54;;;;;;;2.47;2.20;;;;;;;;;;8345227;28;20024;-62
2023/06/24 10:38:57;;;;;;;3.13;2.83;;;;;;;;;;8332392;28;20035;-63
2023/06/24 10:42:59;;;;;;;2.40;2.20;;;;;;;;;;8330135;28;20122;-62
2023/06/24 10:46:59;;;;;;;4.53;2.83;;;;;;;;;;8326518;28;20133;-62
2023/06/24 10:50:59;;;;;;;3.20;2.90;;;;;;;;;;8337648;28;20036;-62
2023/06/24 10:55:00;;;;;;;3.50;3.20;;;;;;;;;;8340810;28;20497;-61
2023/06/24 10:59:00;;;;;;;2.70;2.50;;;;;;;;;;8334247;28;20326;-62
2023/06/24 11:03:16;;;;;;;2.67;2.47;;;;;;;;;;8335227;28;20037;-62
2023/06/24 11:07:27;;;;;;;3.35;2.58;;;;;;;;;;8332191;28;20132;-62
2023/06/24 11:11:28;;;;;;;2.83;2.58;;;;;;;;;;8334433;28;20035;-62
2023/06/24 11:15:28;;;;;;;4.68;2.72;;;;;;;;;;8335685;28;20075;-62
2023/06/24 11:19:32;;;;;;;2.80;2.60;;;;;;;;;;8329009;28;20021;-62
2023/06/24 11:23:32;;;;;;;3.67;2.55;;;;;;;;;;8334414;28;20017;-61
2023/06/24 11:27:33;;;;;;;3.90;2.70;;;;;;;;;;8333446;28;20027;-62
2023/06/24 11:31:34;;;;;;;7.07;2.60;;;;;;;;;;8329543;28;20036;-62
2023/06/24 11:35:36;;;;;;;;;;;;;;;;;;8329229;28;20064;-61
2023/06/24 11:39:36;;;;;;;3.30;3.00;;;;;;;;;;8334072;28;19913;-61
2023/06/24 11:43:36;;;;;;;3.20;2.50;;;;;;;;;;8331335;28;20070;-62
2023/06/24 11:47:38;;;;;;;2.53;2.33;;;;;;;;;;8328489;28;20063;-61
2023/06/24 11:51:44;;;;;;;3.58;2.50;;;;;;;;;;8328048;28;20036;-61
2023/06/24 11:55:51;;;;;;;2.70;2.50;;;;;;;;;;8339365;28;20039;-61
2023/06/24 11:59:52;;;;;;;2.72;2.53;;;;;;;;;;8333326;28;20031;-61
2023/06/24 12:03:53;;;;;;;2.63;2.42;;;;;;;;;;8319860;28;20156;-61
2023/06/24 12:08:06;;;;;;;2.93;2.70;;;;;;;;;;8343188;28;20645;-62
2023/06/24 12:12:06;;;;;;;2.63;2.28;;;;;;;;;;8336477;28;20031;-61
2023/06/24 12:16:07;;;;;;;2.63;2.43;;;;;;;;;;8334003;28;20128;-61
2023/06/24 12:20:07;;;;;;;2.55;2.25;;;;;;;;;;8334789;28;20036;-62
2023/06/24 12:24:08;;;;;;;2.37;2.17;;;;;;;;;;8331920;28;20590;-62
2023/06/24 12:28:08;;;;;;;2.90;2.70;;;;;;;;;;8337370;28;20267;-62
2023/06/24 12:32:09;;;;;;;2.73;2.53;;;;;;;;;;8331872;28;20110;-61
2023/06/24 12:36:09;;;;;;;2.90;2.57;;;;;;;;;;8329896;28;20056;-62
2023/06/24 12:40:09;;;;;;;4.28;2.50;;;;;;;;;;8329977;28;20036;-62
2023/06/24 12:44:09;;;;;;;2.70;2.50;;;;;;;;;;8330427;28;20033;-62
2023/06/24 12:48:10;;;;;;;2.50;2.30;;;;;;;;;;8333859;28;20112;-61
2023/06/24 12:52:11;;;;;;;3.27;2.70;;;;;;;;;;8328922;28;20029;-61
2023/06/24 12:56:12;;;;;;;2.70;2.50;;;;;;;;;;8330305;28;20134;-62
2023/06/24 13:00:13;;;;;;;3.08;2.78;;;;;;;;;;8329934;28;20025;-61
2023/06/24 13:04:14;;;;;;;3.83;2.70;;;;;;;;;;8331697;28;20111;-61
2023/06/24 13:08:14;;;;;;;3.20;2.80;;;;;;;;;;8327437;28;20083;-62
2023/06/24 13:12:14;;;;;;;3.00;2.70;;;;;;;;;;8327687;28;20423;-61
2023/06/24 13:16:14;;;;;;;3.10;2.55;;;;;;;;;;8326507;28;20037;-61
2023/06/24 13:20:16;;;;;;;3.60;2.90;;;;;;;;;;8327640;28;20032;-61
2023/06/24 13:24:16;;;;;;;2.50;2.30;;;;;;;;;;8331984;28;20024;-62
2023/06/24 13:28:16;;;;;;;2.83;2.53;;;;;;;;;;8329575;28;20033;-61
2023/06/24 13:32:17;;;;;;;2.83;2.60;;;;;;;;;;8327324;28;20036;-61
2023/06/24 13:36:35;;;;;;;3.13;2.60;;;;;;;;;;8326044;28;20020;-61
2023/06/24 13:40:35;;;;;;;4.10;2.63;;;;;;;;;;8329702;28;20758;-61
2023/06/24 13:44:36;;;;;;;2.60;2.40;;;;;;;;;;8333531;28;20056;-61
2023/06/24 13:48:36;;;;;;;3.07;2.77;;;;;;;;;;8327688;28;20029;-61
2023/06/24 13:52:36;;;;;;;2.65;2.42;;;;;;;;;;8333339;28;20615;-61
2023/06/24 13:56:37;;;;;;;2.60;2.40;;;;;;;;;;8327385;28;20033;-61
2023/06/24 14:00:37;;;;;;;5.23;2.37;;;;;;;;;;8331747;28;20072;-61
2023/06/24 14:04:38;;;;;;;3.38;2.53;;;;;;;;;;8338111;28;20029;-61
2023/06/24 14:08:39;;;;;;;3.17;2.72;;;;;;;;;;8333423;28;20306;-61
2023/06/24 14:12:42;;;;;;;3.80;2.65;;;;;;;;;;8336769;28;20765;-61
2023/06/24 14:16:42;;;;;;;2.70;2.38;;;;;;;;;;8336394;28;20091;-61
2023/06/24 14:20:42;;;;;;;3.23;2.33;;;;;;;;;;8338592;28;20079;-61
2023/06/24 14:24:43;;;;;;;2.45;2.25;;;;;;;;;;8337181;28;20081;-61
2023/06/24 14:28:43;;;;;;;2.50;2.30;;;;;;;;;;8335764;28;20051;-61
2023/06/24 14:32:44;;;;;;;2.73;2.50;;;;;;;;;;8334574;28;20049;-61
2023/06/24 14:36:44;;;;;;;3.13;2.42;;;;;;;;;;8334037;28;20017;-62
2023/06/24 14:40:44;;;;;;;2.30;2.20;;;;;;;;;;8337188;28;20199;-61
2023/06/24 14:44:44;;;;;;;2.63;2.43;;;;;;;;;;8338226;28;20048;-61
2023/06/24 14:48:45;;;;;;;2.75;2.50;;;;;;;;;;8335685;28;20088;-61
2023/06/24 14:52:45;;;;;;;3.00;2.80;;;;;;;;;;8339089;28;20028;-61
2023/06/24 14:56:46;;;;;;;3.40;3.10;;;;;;;;;;8336378;28;20575;-62
2023/06/24 15:00:47;;;;;;;5.85;3.20;;;;;;;;;;8337451;28;20045;-61
2023/06/24 15:04:47;;;;;;;3.35;2.60;;;;;;;;;;8334577;28;20484;-61
2023/06/24 15:08:47;;;;;;;2.88;2.60;;;;;;;;;;8336568;28;20087;-61
2023/06/24 15:12:47;;;;;;;3.00;2.80;;;;;;;;;;8337183;28;20469;-62
2023/06/24 15:16:47;;;;;;;2.88;2.67;;;;;;;;;;8336229;28;20089;-61
2023/06/24 15:20:48;;;;;;;6.00;2.90;;;;;;;;;;8335669;28;20025;-61
2023/06/24 15:24:48;;;;;;;7.27;2.80;;;;;;;;;;8335920;28;20028;-62
2023/06/24 15:28:48;;;;;;;2.70;2.50;;;;;;;;;;8335058;28;20357;-61
2023/06/24 15:32:48;;;;;;;3.47;2.58;;;;;;;;;;8332643;28;20033;-61
2023/06/24 15:36:48;;;;;;;3.08;2.63;;;;;;;;;;8334027;28;20040;-61
2023/06/24 15:40:49;;;;;;;2.80;2.60;;;;;;;;;;8337516;28;20110;-61
2023/06/24 15:44:50;;;;;;;3.65;2.67;;;;;;;;;;8335123;28;20029;-61
2023/06/24 15:48:50;;;;;;;;;;;;;;;;;;8333826;28;20530;-62
2023/06/24 15:52:51;;;;;;;4.40;2.70;;;;;;;;;;8335357;28;19912;-62
2023/06/24 15:56:51;;;;;;;3.15;2.67;;;;;;;;;;8333500;28;20485;-61
2023/06/24 16:00:51;;;;;;;2.72;2.53;;;;;;;;;;8332888;28;20056;-62
2023/06/24 16:04:51;;;;;;;3.93;2.80;;;;;;;;;;8337361;28;20021;-61
2023/06/24 16:08:52;;;;;;;2.67;2.47;;;;;;;;;;8335351;28;20434;-61
2023/06/24 16:12:52;;;;;;;3.15;2.70;;;;;;;;;;8334586;28;20025;-61
2023/06/24 16:16:53;;;;;;;3.25;2.50;;;;;;;;;;8332147;28;20073;-61
2023/06/24 16:20:53;;;;;;;2.70;2.50;;;;;;;;;;8332201;28;20021;-61
2023/06/24 16:24:53;;;;;;;3.33;2.60;;;;;;;;;;8332759;28;20083;-62
2023/06/24 16:28:54;;;;;;;2.70;2.50;;;;;;;;;;8331429;28;20589;-61
2023/06/24 16:32:54;;;;;;;2.70;2.50;;;;;;;;;;8332195;28;20041;-62
2023/06/24 16:36:54;;;;;;;3.90;2.60;;;;;;;;;;8332887;28;20363;-62
2023/06/24 16:40:54;;;;;;;4.05;2.70;;;;;;;;;;8331959;28;20029;-61
2023/06/24 16:44:55;;;;;;;7.43;2.67;;;;;;;;;;8329570;28;20489;-61
2023/06/24 16:48:55;;;;;;;2.60;2.40;;;;;;;;;;8329567;28;20075;-62
2023/06/24 16:52:55;;;;;;;2.87;2.60;;;;;;;;;;8329520;28;20028;-62
2023/06/24 16:56:55;;;;;;;3.47;2.58;;;;;;;;;;8329100;28;20630;-61
2023/06/24 17:00:55;;;;;;;4.03;2.60;;;;;;;;;;8332845;28;20093;-61
2023/06/24 17:04:56;;;;;;;2.67;2.47;;;;;;;;;;8331323;28;20396;-61
2023/06/24 17:08:56;;;;;;;3.03;2.75;;;;;;;;;;8332247;28;20058;-61
2023/06/24 17:12:56;;;;;;;4.03;2.67;;;;;;;;;;8314619;28;20048;-61
2023/06/24 17:16:57;;;;;;;2.70;2.50;;;;;;;;;;8329178;28;20107;-61
2023/06/24 17:20:57;;;;;;;3.00;2.80;;;;;;;;;;8330156;28;20025;-61
2023/06/24 17:24:58;;;;;;;2.47;2.27;;;;;;;;;;8329948;28;20289;-61
2023/06/24 17:28:58;;;;;;;2.80;2.35;;;;;;;;;;8331833;28;20274;-61
2023/06/24 17:32:58;;;;;;;3.77;2.60;;;;;;;;;;8329376;28;20060;-61
2023/06/24 17:36:58;;;;;;;2.75;2.55;;;;;;;;;;8331224;28;20608;-61
2023/06/24 17:40:59;;;;;;;2.70;2.50;;;;;;;;;;8330191;28;20052;-61
2023/06/24 17:44:59;;;;;;;2.50;2.30;;;;;;;;;;8333135;28;20539;-61
2023/06/24 17:48:59;;;;;;;2.95;2.72;;;;;;;;;;8329848;28;20121;-61
2023/06/24 17:52:59;;;;;;;2.88;2.40;;;;;;;;;;8329735;28;20029;-61
2023/06/24 17:56:59;;;;;;;2.92;2.72;;;;;;;;;;8330661;28;20829;-61
2023/06/24 18:01:00;;;;;;;2.58;2.40;;;;;;;;;;8330147;28;20044;-61
2023/06/24 18:05:00;;;;;;;2.80;2.60;;;;;;;;;;8330457;28;20097;-61
2023/06/24 18:09:00;;;;;;;2.60;2.40;;;;;;;;;;8329561;28;20024;-61
2023/06/24 18:13:02;;;;;;;5.75;2.70;;;;;;;;;;8328289;28;20039;-61
2023/06/24 18:17:02;;;;;;;6.10;2.67;;;;;;;;;;8328616;28;20951;-61
2023/06/24 18:21:03;;;;;;;3.10;2.80;;;;;;;;;;8333400;28;20086;-61
2023/06/24 18:25:04;;;;;;;3.15;2.85;;;;;;;;;;8329333;28;20064;-61
2023/06/24 18:29:05;;;;;;;4.15;2.60;;;;;;;;;;8328579;28;20128;-61
2023/06/24 18:33:05;;;;;;;3.00;2.70;;;;;;;;;;8329597;28;20775;-61
2023/06/24 18:37:05;;;;;;;3.85;3.00;;;;;;;;;;8330392;28;20175;-61
2023/06/24 18:41:05;;;;;;;3.97;2.63;;;;;;;;;;8328766;28;20171;-61
2023/06/24 18:45:06;;;;;;;3.23;2.50;;;;;;;;;;8330352;28;20534;-61
2023/06/24 18:49:06;;;;;;;4.45;3.00;;;;;;;;;;8333182;28;20056;-61
2023/06/24 18:53:10;;;;;;;5.68;2.78;;;;;;;;;;8337755;28;20459;-61
2023/06/24 18:57:10;;;;;;;4.43;3.00;;;;;;;;;;8333437;28;20024;-61
2023/06/24 19:01:10;;;;;;;3.15;2.85;;;;;;;;;;8335989;28;20040;-61
2023/06/24 19:05:11;;;;;;;3.67;2.97;;;;;;;;;;8334360;28;20033;-61
2023/06/24 19:09:11;;;;;;;4.43;2.95;;;;;;;;;;8334961;28;20052;-61
2023/06/24 19:13:11;;;;;;;3.10;2.88;;;;;;;;;;8337297;28;20438;-61
2023/06/24 19:17:11;;;;;;;3.22;2.90;;;;;;;;;;8339292;28;20041;-62
2023/06/24 19:21:11;;;;;;;11.40;2.90;;;;;;;;;;8337119;28;20033;-61
2023/06/24 19:25:12;;;;;;;3.40;3.10;;;;;;;;;;8337695;28;20127;-61
2023/06/24 19:29:12;;;;;;;3.38;3.00;;;;;;;;;;8334353;28;20791;-61
2023/06/24 19:33:13;;;;;;;4.63;3.20;;;;;;;;;;8332462;28;20067;-61
2023/06/24 19:37:14;;;;;;;3.45;2.90;;;;;;;;;;8340887;28;20047;-61
2023/06/24 19:41:14;;;;;;;3.05;2.80;;;;;;;;;;8338342;28;20059;-61
2023/06/24 19:45:15;;;;;;;3.28;2.83;;;;;;;;;;8332214;28;20032;-61
2023/06/24 19:49:15;;;;;;;3.30;2.97;;;;;;;;;;8337727;28;20440;-61
2023/06/24 19:53:16;;;;;;;3.75;2.90;;;;;;;;;;8337534;28;20029;-61
2023/06/24 19:57:17;;;;;;;3.22;2.78;;;;;;;;;;8331910;28;20083;-61
2023/06/24 20:01:17;;;;;;;2.97;2.78;;;;;;;;;;8332757;28;20040;-61
2023/06/24 20:05:17;;;;;;;3.85;2.80;;;;;;;;;;8331920;28;20520;-61
2023/06/24 20:09:17;;;;;;;2.85;2.65;;;;;;;;;;8334463;28;20123;-61
2023/06/24 20:13:17;;;;;;;4.22;3.20;;;;;;;;;;8331236;28;20075;-61
2023/06/24 20:17:17;;;;;;;3.10;2.85;;;;;;;;;;8330309;28;20044;-61
2023/06/24 20:21:18;;;;;;;3.08;2.75;;;;;;;;;;8333754;28;20044;-61
2023/06/24 20:25:19;;;;;;;3.58;3.00;;;;;;;;;;8329967;28;20289;-61
2023/06/24 20:29:19;;;;;;;3.22;2.92;;;;;;;;;;8336723;28;20025;-61
2023/06/24 20:33:22;;;;;;;4.25;3.13;;;;;;;;;;8343056;28;20045;-61
2023/06/24 20:37:22;;;;;;;;;;;;;;;;;;8331962;28;20039;-61
2023/06/24 20:41:23;;;;;;;4.30;3.13;;;;;;;;;;8333958;28;19917;-61
2023/06/24 20:45:23;;;;;;;5.32;2.70;;;;;;;;;;8354350;28;20047;-61
2023/06/24 20:49:23;;;;;;;3.83;2.92;;;;;;;;;;8364194;28;20024;-61
2023/06/24 20:53:23;;;;;;;3.40;3.10;;;;;;;;;;8373965;28;20023;-61
2023/06/24 20:57:23;;;;;;;3.65;2.90;;;;;;;;;;8372196;28;20119;-61
2023/06/24 21:01:23;;;;;;;3.97;3.20;;;;;;;;;;8368384;28;20032;-61
2023/06/24 21:05:24;;;;;;;4.05;3.10;;;;;;;;;;8366247;28;20883;-61
2023/06/24 21:09:24;;;;;;;3.20;2.90;;;;;;;;;;8367102;28;20021;-61
2023/06/24 21:13:25;;;;;;;4.35;3.05;;;;;;;;;;8366484;28;20035;-60
2023/06/24 21:17:25;;;;;;;3.58;3.28;;;;;;;;;;8366335;28;20118;-61
2023/06/24 21:21:26;;;;;;;3.30;3.00;;;;;;;;;;8372107;28;20020;-61
2023/06/24 21:25:26;;;;;;;3.28;2.97;;;;;;;;;;8362737;28;20055;-61
2023/06/24 21:29:27;;;;;;;5.22;3.22;;;;;;;;;;8349219;28;20073;-61
2023/06/24 21:33:27;;;;;;;3.95;3.40;;;;;;;;;;8375871;28;20033;-61
2023/06/24 21:37:27;;;;;;;5.07;3.45;;;;;;;;;;8365322;28;20645;-61
2023/06/24 21:41:27;;;;;;;3.85;3.10;;;;;;;;;;8363153;28;20024;-61
2023/06/24 21:45:27;;;;;;;3.08;2.88;;;;;;;;;;8330320;28;20048;-61
2023/06/24 21:49:28;;;;;;;3.78;3.20;;;;;;;;;;8329837;28;20028;-61
2023/06/24 21:53:31;;;;;;;3.63;2.90;;;;;;;;;;8330139;28;20134;-61
2023/06/24 21:57:31;;;;;;;5.05;3.28;;;;;;;;;;8326591;28;20016;-61
2023/06/24 22:01:31;;;;;;;3.88;3.13;;;;;;;;;;8329668;28;20158;-61
2023/06/24 22:05:32;;;;;;;5.60;3.40;;;;;;;;;;8341306;28;20491;-61
2023/06/24 22:09:32;;;;;;;3.83;3.00;;;;;;;;;;8334367;28;20024;-61
2023/06/24 22:13:34;;;;;;;3.20;2.80;;;;;;;;;;8330344;28;20033;-61
2023/06/24 22:17:34;;;;;;;3.33;3.03;;;;;;;;;;8327907;28;20969;-61
2023/06/24 22:21:34;;;;;;;3.47;3.00;;;;;;;;;;8332414;28;20020;-61
2023/06/24 22:25:34;;;;;;;5.15;3.42;;;;;;;;;;8333223;28;20033;-61
2023/06/24 22:29:35;;;;;;;3.40;3.10;;;;;;;;;;8335986;28;20029;-61
2023/06/24 22:33:35;;;;;;;4.53;3.20;;;;;;;;;;8336929;28;20131;-61
2023/06/24 22:37:38;;;;;;;5.25;3.50;;;;;;;;;;8339204;28;20116;-61
2023/06/24 22:41:38;;;;;;;2.95;2.75;;;;;;;;;;8337864;28;20028;-61
2023/06/24 22:45:38;;;;;;;3.40;3.10;;;;;;;;;;8332536;28;20509;-61
2023/06/24 22:49:38;;;;;;;3.58;3.10;;;;;;;;;;8335240;28;20032;-61
2023/06/24 22:53:39;;;;;;;3.53;3.10;;;;;;;;;;8331670;28;20506;-61
2023/06/24 22:57:39;;;;;;;3.10;2.90;;;;;;;;;;8335413;28;20031;-61
2023/06/24 23:01:39;;;;;;;3.13;2.83;;;;;;;;;;8306997;28;20100;-61
2023/06/24 23:05:39;;;;;;;3.35;3.05;;;;;;;;;;8331934;28;20130;-61
2023/06/24 23:09:39;;;;;;;4.53;3.23;;;;;;;;;;8329579;28;20472;-61
2023/06/24 23:13:41;;;;;;;4.10;3.33;;;;;;;;;;8328881;28;20441;-61
2023/06/24 23:17:41;;;;;;;3.30;3.00;;;;;;;;;;8324070;28;20045;-61
2023/06/24 23:21:42;;;;;;;3.38;3.08;;;;;;;;;;8326209;28;20769;-61
2023/06/24 23:25:42;;;;;;;4.50;2.92;;;;;;;;;;8327799;28;20075;-61
2023/06/24 23:29:44;;;;;;;3.42;3.13;;;;;;;;;;8332023;28;20054;-61
2023/06/24 23:33:46;;;;;;;3.78;2.95;;;;;;;;;;8323473;28;20604;-61
2023/06/24 23:37:46;;;;;;;3.40;2.95;;;;;;;;;;8327652;28;20466;-61
2023/06/24 23:41:47;;;;;;;4.38;3.03;;;;;;;;;;8334512;28;20123;-61
2023/06/24 23:45:49;;;;;;;6.07;2.95;;;;;;;;;;8328927;28;20051;-61
2023/06/24 23:49:49;;;;;;;5.00;3.08;;;;;;;;;;8328560;28;20020;-61
2023/06/24 23:53:49;;;;;;;3.90;2.83;;;;;;;;;;8327468;28;20235;-61
2023/06/24 23:57:50;;;;;;;3.50;3.00;;;;;;;;;;8327840;28;20021;-61
